createdAt,value
2019-02-05T00:00:45.456Z,10.40
2019-02-05T00:03:47.181Z,10.30
2019-02-05T00:06:48.600Z,10.30
2019-02-05T00:09:50.143Z,10.30
2019-02-05T00:12:51.573Z,10.20
2019-02-05T00:15:53.143Z,10.20
2019-02-05T00:18:54.655Z,10.20
2019-02-05T00:21:57.036Z,10.10
2019-02-05T00:24:58.454Z,10.10
2019-02-05T00:28:00.249Z,10.10
2019-02-05T00:31:02.008Z,10.00
2019-02-05T00:34:03.913Z,10.00
2019-02-05T00:37:05.537Z,10.00
2019-02-05T00:40:10.421Z,9.90
2019-02-05T00:43:12.180Z,9.90
2019-02-05T00:46:13.686Z,9.90
2019-02-05T00:49:15.154Z,9.90
2019-02-05T00:52:16.607Z,9.80
2019-02-05T00:55:18.319Z,9.80
2019-02-05T00:58:19.731Z,9.80
2019-02-05T01:01:21.127Z,9.70
2019-02-05T01:04:22.658Z,9.70
2019-02-05T01:07:24.446Z,9.60
2019-02-05T01:10:26.734Z,9.60
2019-02-05T01:13:28.605Z,9.60
2019-02-05T01:16:30.004Z,9.60
2019-02-05T01:19:31.490Z,9.50
2019-02-05T01:22:32.960Z,9.50
2019-02-05T01:25:34.348Z,9.40
2019-02-05T01:28:35.795Z,9.40
2019-02-05T01:31:37.234Z,9.40
2019-02-05T01:34:38.982Z,9.40
2019-02-05T01:37:40.438Z,9.30
2019-02-05T01:40:41.947Z,9.30
2019-02-05T01:43:43.463Z,9.30
2019-02-05T01:46:45.026Z,9.30
2019-02-05T01:49:46.439Z,9.30
2019-02-05T01:52:47.813Z,9.20
2019-02-05T01:55:49.300Z,9.20
2019-02-05T01:58:50.723Z,9.10
2019-02-05T02:01:52.201Z,9.10
2019-02-05T02:04:53.644Z,9.10
2019-02-05T02:07:55.498Z,9.10
2019-02-05T02:10:56.949Z,9.10
2019-02-05T02:13:58.466Z,9.00
2019-02-05T02:16:59.856Z,9.00
2019-02-05T02:20:01.845Z,9.00
2019-02-05T02:23:03.497Z,9.00
2019-02-05T02:26:04.948Z,8.90
2019-02-05T02:29:07.426Z,8.90
2019-02-05T02:32:09.019Z,8.80
2019-02-05T02:35:12.270Z,8.90
2019-02-05T02:38:13.693Z,8.80
2019-02-05T02:41:16.240Z,8.80
2019-02-05T02:44:17.678Z,8.80
2019-02-05T02:47:19.140Z,8.70
2019-02-05T02:50:20.596Z,8.70
2019-02-05T02:53:22.505Z,8.60
2019-02-05T02:56:23.961Z,8.60
2019-02-05T02:59:25.442Z,8.60
2019-02-05T03:02:27.008Z,8.60
2019-02-05T03:05:28.483Z,8.60
2019-02-05T03:08:29.964Z,8.50
2019-02-05T03:11:31.450Z,8.50
2019-02-05T03:14:32.913Z,8.50
2019-02-05T03:17:34.731Z,8.50
2019-02-05T03:20:36.170Z,8.40
2019-02-05T03:23:37.595Z,8.40
2019-02-05T03:26:39.085Z,8.40
2019-02-05T03:29:40.503Z,8.30
2019-02-05T03:32:42.225Z,8.30
2019-02-05T03:35:43.599Z,8.30
2019-02-05T03:38:45.006Z,8.20
2019-02-05T03:41:46.433Z,8.20
2019-02-05T03:44:47.913Z,8.20
2019-02-05T03:47:49.689Z,8.10
2019-02-05T03:50:56.696Z,8.10
2019-02-05T03:54:19.815Z,8.10
2019-02-05T03:58:19.706Z,8.00
2019-02-05T04:02:27.605Z,8.00
2019-02-05T04:06:23.697Z,7.90
2019-02-05T04:10:34.261Z,7.90
2019-02-05T04:14:31.658Z,7.80
2019-02-05T04:18:21.948Z,7.80
2019-02-05T04:22:22.370Z,7.80
2019-02-05T04:26:23.693Z,7.70
2019-02-05T04:30:33.746Z,7.70
2019-02-05T04:34:42.470Z,7.70
2019-02-05T04:38:48.392Z,7.60
2019-02-05T04:43:06.487Z,7.60
2019-02-05T04:47:11.594Z,7.60
2019-02-05T04:51:07.636Z,7.50
2019-02-05T04:54:52.618Z,7.50
2019-02-05T04:58:54.679Z,7.40
2019-02-05T05:03:14.347Z,7.40
2019-02-05T05:07:16.464Z,7.40
2019-02-05T05:10:17.876Z,7.30
2019-02-05T05:13:19.475Z,7.30
2019-02-05T05:16:21.319Z,7.30
2019-02-05T05:19:22.688Z,7.30
2019-02-05T05:22:24.123Z,7.20
2019-02-05T05:25:25.970Z,7.20
2019-02-05T05:28:27.910Z,7.20
2019-02-05T05:31:29.769Z,7.10
2019-02-05T05:34:31.193Z,7.10
2019-02-05T05:37:32.682Z,7.10
2019-02-05T05:40:35.481Z,7.10
2019-02-05T05:43:36.894Z,7.00
2019-02-05T05:46:38.355Z,7.00
2019-02-05T05:49:39.860Z,7.00
2019-02-05T05:52:41.330Z,6.90
2019-02-05T05:55:42.940Z,6.90
2019-02-05T05:58:44.372Z,6.90
2019-02-05T06:01:45.754Z,6.90
2019-02-05T06:04:47.176Z,6.90
2019-02-05T06:07:48.657Z,6.80
2019-02-05T06:10:50.081Z,6.80
2019-02-05T06:13:51.511Z,6.80
2019-02-05T06:16:52.884Z,6.70
2019-02-05T06:19:54.784Z,6.70
2019-02-05T06:22:56.227Z,6.70
2019-02-05T06:25:57.646Z,6.70
2019-02-05T06:28:59.128Z,6.60
2019-02-05T06:32:00.695Z,6.60
2019-02-05T06:35:02.090Z,6.60
2019-02-05T06:38:03.537Z,6.50
2019-02-05T06:41:05.077Z,6.50
2019-02-05T06:44:06.967Z,6.50
2019-02-05T06:47:08.381Z,6.50
2019-02-05T06:50:10.832Z,6.50
2019-02-05T06:53:12.341Z,6.40
2019-02-05T06:56:13.738Z,6.40
2019-02-05T06:59:15.336Z,6.40
2019-02-05T07:02:16.723Z,6.40
2019-02-05T07:05:18.252Z,6.30
2019-02-05T07:08:19.624Z,6.40
2019-02-05T07:11:21.118Z,6.30
2019-02-05T07:14:22.546Z,6.30
2019-02-05T07:17:24.010Z,6.30
2019-02-05T07:20:25.516Z,6.30
2019-02-05T07:23:27.347Z,6.30
2019-02-05T07:26:28.946Z,6.30
2019-02-05T07:29:30.403Z,6.20
2019-02-05T07:32:31.741Z,6.20
2019-02-05T07:35:33.100Z,6.20
2019-02-05T07:38:34.569Z,6.20
2019-02-05T07:41:35.954Z,6.20
2019-02-05T07:44:40.008Z,6.30
2019-02-05T07:47:40.579Z,6.20
2019-02-05T07:50:42.042Z,6.20
2019-02-05T07:53:43.531Z,6.30
2019-02-05T07:56:44.967Z,6.40
2019-02-05T07:59:47.148Z,6.30
2019-02-05T08:02:48.768Z,6.30
2019-02-05T08:05:50.170Z,6.30
2019-02-05T08:08:51.548Z,6.30
2019-02-05T08:11:52.997Z,6.40
2019-02-05T08:14:54.461Z,6.50
2019-02-05T08:17:55.935Z,6.60
2019-02-05T08:20:57.297Z,6.70
2019-02-05T08:23:58.854Z,6.70
2019-02-05T08:27:00.231Z,6.80
2019-02-05T08:30:01.571Z,6.80
2019-02-05T08:33:03.441Z,6.80
2019-02-05T08:36:04.965Z,6.80
2019-02-05T08:39:10.162Z,6.80
2019-02-05T08:42:12.633Z,6.80
2019-02-05T08:45:17.786Z,6.80
2019-02-05T08:48:19.274Z,6.80
2019-02-05T08:51:20.743Z,6.80
2019-02-05T08:54:22.186Z,6.80
2019-02-05T08:57:23.592Z,6.80
2019-02-05T09:00:30.940Z,6.90
2019-02-05T09:03:32.486Z,6.90
2019-02-05T09:06:35.471Z,6.90
2019-02-05T09:09:37.218Z,7.00
2019-02-05T09:12:38.803Z,7.00
2019-02-05T09:15:40.189Z,7.10
2019-02-05T09:18:41.633Z,7.20
2019-02-05T09:21:43.090Z,7.20
2019-02-05T09:24:44.492Z,7.30
2019-02-05T09:27:46.194Z,7.40
2019-02-05T09:30:48.123Z,7.50
2019-02-05T09:33:49.721Z,7.60
2019-02-05T09:36:51.631Z,7.70
2019-02-05T09:39:53.136Z,7.80
2019-02-05T09:42:54.560Z,7.90
2019-02-05T09:45:56.024Z,8.10
2019-02-05T09:48:57.421Z,8.20
2019-02-05T09:51:58.852Z,8.30
2019-02-05T09:55:00.417Z,8.40
2019-02-05T09:58:01.835Z,8.50
2019-02-05T10:01:03.231Z,8.60
2019-02-05T10:04:04.623Z,8.70
2019-02-05T10:07:06.133Z,8.90
2019-02-05T10:10:10.913Z,9.00
2019-02-05T10:13:12.402Z,9.10
2019-02-05T10:16:14.047Z,9.20
2019-02-05T10:19:15.455Z,9.30
2019-02-05T10:22:16.907Z,9.50
2019-02-05T10:25:18.720Z,9.60
2019-02-05T10:28:20.305Z,9.70
2019-02-05T10:31:21.967Z,9.80
2019-02-05T10:34:33.584Z,10.00
2019-02-05T10:37:26.589Z,10.10
2019-02-05T10:40:28.434Z,10.20
2019-02-05T10:43:29.955Z,10.40
2019-02-05T10:46:31.855Z,10.50
2019-02-05T10:49:33.377Z,10.70
2019-02-05T10:52:34.903Z,10.80
2019-02-05T10:55:36.959Z,11.00
2019-02-05T10:58:38.376Z,11.10
2019-02-05T11:01:39.961Z,11.30
2019-02-05T11:04:41.431Z,11.40
2019-02-05T11:07:42.973Z,11.60
2019-02-05T11:10:44.428Z,11.80
2019-02-05T11:13:45.931Z,11.90
2019-02-05T11:16:47.437Z,12.10
2019-02-05T11:19:49.136Z,12.30
2019-02-05T11:22:50.955Z,12.40
2019-02-05T11:25:52.414Z,12.60
2019-02-05T11:28:53.966Z,12.80
2019-02-05T11:31:55.868Z,12.90
2019-02-05T11:34:57.564Z,13.10
2019-02-05T11:37:59.022Z,13.30
2019-02-05T11:41:00.441Z,13.50
2019-02-05T11:44:01.896Z,13.60
2019-02-05T11:47:03.938Z,13.90
2019-02-05T11:50:06.620Z,14.10
2019-02-05T11:53:09.070Z,14.30
2019-02-05T11:56:10.488Z,14.50
2019-02-05T11:59:12.404Z,14.80
2019-02-05T12:02:13.791Z,15.20
2019-02-05T12:05:15.360Z,15.50
2019-02-05T12:08:18.720Z,15.60
2019-02-05T12:11:22.373Z,15.80
2019-02-05T12:14:23.774Z,16.00
2019-02-05T12:17:25.181Z,16.20
2019-02-05T12:20:26.627Z,16.40
2019-02-05T12:23:28.133Z,16.60
2019-02-05T12:26:29.705Z,16.90
2019-02-05T12:29:31.317Z,17.10
2019-02-05T12:32:32.793Z,17.30
2019-02-05T12:35:34.383Z,17.50
2019-02-05T12:38:36.553Z,17.80
2019-02-05T12:41:37.984Z,18.00
2019-02-05T12:44:39.529Z,18.30
2019-02-05T12:47:40.978Z,18.50
2019-02-05T12:50:42.482Z,18.80
2019-02-05T12:53:43.921Z,19.00
2019-02-05T12:56:45.349Z,19.30
2019-02-05T12:59:46.886Z,19.50
2019-02-05T13:02:49.021Z,19.80
2019-02-05T13:05:50.503Z,19.80
2019-02-05T13:08:51.936Z,20.00
2019-02-05T13:11:53.333Z,20.10
2019-02-05T13:14:54.789Z,20.10
2019-02-05T13:17:56.324Z,20.30
2019-02-05T13:20:58.080Z,20.50
2019-02-05T13:23:59.619Z,20.70
2019-02-05T13:27:01.156Z,20.90
2019-02-05T13:30:02.691Z,21.00
2019-02-05T13:33:06.278Z,21.20
2019-02-05T13:36:11.871Z,21.30
2019-02-05T13:39:14.363Z,21.50
2019-02-05T13:42:15.895Z,21.70
2019-02-05T13:45:22.355Z,21.80
2019-02-05T13:48:23.829Z,22.00
2019-02-05T13:51:26.231Z,22.20
2019-02-05T13:54:28.208Z,22.40
2019-02-05T13:57:29.761Z,22.50
2019-02-05T14:00:37.435Z,22.60
2019-02-05T14:03:39.443Z,22.70
2019-02-05T14:06:41.056Z,22.90
2019-02-05T14:09:42.514Z,22.90
2019-02-05T14:12:43.922Z,22.90
2019-02-05T14:15:51.034Z,22.90
2019-02-05T14:18:55.251Z,22.90
2019-02-05T14:21:56.668Z,22.90
2019-02-05T14:24:58.193Z,22.90
2019-02-05T14:27:59.726Z,22.90
2019-02-05T14:31:01.313Z,22.90
2019-02-05T14:34:03.331Z,22.90
2019-02-05T14:37:05.232Z,22.90
2019-02-05T14:40:10.038Z,22.90
2019-02-05T14:43:11.692Z,22.90
2019-02-05T14:46:13.653Z,22.90
2019-02-05T14:49:15.193Z,23.00
2019-02-05T14:52:16.573Z,23.00
2019-02-05T14:55:18.148Z,23.00
2019-02-05T14:58:20.146Z,23.00
2019-02-05T15:01:21.701Z,23.10
2019-02-05T15:04:23.168Z,23.10
2019-02-05T15:07:24.923Z,23.10
2019-02-05T15:10:26.806Z,23.10
2019-02-05T15:13:28.338Z,23.10
2019-02-05T15:16:29.782Z,23.10
2019-02-05T15:19:32.561Z,23.30
2019-02-05T15:22:34.971Z,23.50
2019-02-05T15:25:37.732Z,23.60
2019-02-05T15:28:39.221Z,23.60
2019-02-05T15:31:40.618Z,23.60
2019-02-05T15:34:43.019Z,23.60
2019-02-05T15:37:44.463Z,23.70
2019-02-05T15:40:46.012Z,23.80
2019-02-05T15:43:47.527Z,23.90
2019-02-05T15:46:49.057Z,23.90
2019-02-05T15:49:50.492Z,24.00
2019-02-05T15:52:52.008Z,24.00
2019-02-05T15:55:53.402Z,24.10
2019-02-05T15:58:55.163Z,24.20
2019-02-05T16:02:05.998Z,24.40
2019-02-05T16:05:01.312Z,24.30
2019-02-05T16:08:03.033Z,24.20
2019-02-05T16:11:05.118Z,24.00
2019-02-05T16:14:07.070Z,24.20
2019-02-05T16:17:08.636Z,24.10
2019-02-05T16:20:12.095Z,23.80
2019-02-05T16:23:13.658Z,23.50
2019-02-05T16:26:15.093Z,23.20
2019-02-05T16:29:16.553Z,22.90
2019-02-05T16:32:18.267Z,22.50
2019-02-05T16:35:20.201Z,22.30
2019-02-05T16:38:21.737Z,22.20
2019-02-05T16:41:23.158Z,22.00
2019-02-05T16:44:24.727Z,21.90
2019-02-05T16:47:26.489Z,21.80
2019-02-05T16:50:34.333Z,21.70
2019-02-05T16:53:35.869Z,21.60
2019-02-05T16:56:37.497Z,21.60
2019-02-05T16:59:38.959Z,21.50
2019-02-05T17:02:40.477Z,21.40
2019-02-05T17:05:42.775Z,21.30
2019-02-05T17:08:44.723Z,21.20
2019-02-05T17:11:46.414Z,21.10
2019-02-05T17:14:47.906Z,20.90
2019-02-05T17:17:50.966Z,20.80
2019-02-05T17:20:52.913Z,20.70
2019-02-05T17:23:54.548Z,20.50
2019-02-05T17:26:56.615Z,20.40
2019-02-05T17:29:59.903Z,20.30
2019-02-05T17:33:01.372Z,20.10
2019-02-05T17:36:02.950Z,20.00
2019-02-05T17:39:06.754Z,19.80
2019-02-05T17:42:09.486Z,19.70
2019-02-05T17:45:24.534Z,19.60
2019-02-05T17:48:26.322Z,19.50
2019-02-05T17:51:27.736Z,19.30
2019-02-05T17:54:29.271Z,19.20
2019-02-05T17:57:31.175Z,19.00
2019-02-05T18:00:41.437Z,19.00
2019-02-05T18:03:43.095Z,18.80
2019-02-05T18:06:46.243Z,18.70
2019-02-05T18:09:47.752Z,18.60
2019-02-05T18:12:49.268Z,18.40
2019-02-05T18:15:50.966Z,18.30
2019-02-05T18:18:52.717Z,18.20
2019-02-05T18:21:54.192Z,18.10
2019-02-05T18:24:55.870Z,18.00
2019-02-05T18:27:57.359Z,17.90
2019-02-05T18:30:58.904Z,17.80
2019-02-05T18:34:00.599Z,17.70
2019-02-05T18:37:02.274Z,17.60
2019-02-05T18:40:03.929Z,17.50
2019-02-05T18:43:05.615Z,17.40
2019-02-05T18:46:08.332Z,17.30
2019-02-05T18:49:10.650Z,17.20
2019-02-05T18:52:12.511Z,17.10
2019-02-05T18:55:14.368Z,17.00
2019-02-05T18:58:15.955Z,16.90
2019-02-05T19:01:17.444Z,16.80
2019-02-05T19:04:19.004Z,16.70
2019-02-05T19:07:20.559Z,16.60
2019-02-05T19:10:24.678Z,16.50
2019-02-05T19:13:26.347Z,16.40
2019-02-05T19:16:28.424Z,16.30
2019-02-05T19:19:30.614Z,16.20
2019-02-05T19:22:33.127Z,16.10
2019-02-05T19:25:56.338Z,16.10
2019-02-05T19:28:58.235Z,15.90
2019-02-05T19:31:59.924Z,15.90
2019-02-05T19:35:01.937Z,15.70
2019-02-05T19:38:03.700Z,15.70
2019-02-05T19:41:05.308Z,15.60
2019-02-05T19:44:08.300Z,15.50
2019-02-05T19:47:18.917Z,15.40
2019-02-05T19:50:20.616Z,15.40
2019-02-05T19:53:22.502Z,15.30
2019-02-05T19:56:25.693Z,15.20
2019-02-05T19:59:27.371Z,15.10
2019-02-05T20:02:29.280Z,15.00
2019-02-05T20:05:30.818Z,14.90
2019-02-05T20:08:32.919Z,14.90
2019-02-05T20:11:35.804Z,14.80
2019-02-05T20:14:37.341Z,14.70
2019-02-05T20:17:39.282Z,14.70
2019-02-05T20:20:40.917Z,14.60
2019-02-05T20:23:42.482Z,14.50
2019-02-05T20:26:44.053Z,14.40
2019-02-05T20:29:45.775Z,14.40
2019-02-05T20:32:47.376Z,14.30
2019-02-05T20:35:48.994Z,14.20
2019-02-05T20:38:50.877Z,14.20
2019-02-05T20:41:53.108Z,14.10
2019-02-05T20:44:55.203Z,14.00
2019-02-05T20:47:56.766Z,14.00
2019-02-05T20:51:00.962Z,13.90
2019-02-05T20:54:01.902Z,13.90
2019-02-05T20:57:04.857Z,13.80
2019-02-05T21:00:17.877Z,13.70
2019-02-05T21:03:19.812Z,13.70
2019-02-05T21:06:21.514Z,13.60
2019-02-05T21:09:23.826Z,13.60
2019-02-05T21:12:25.497Z,13.50
2019-02-05T21:15:27.599Z,13.50
2019-02-05T21:18:29.152Z,13.40
2019-02-05T21:21:30.672Z,13.30
2019-02-05T21:24:32.208Z,13.30
2019-02-05T21:27:33.919Z,13.20
2019-02-05T21:30:35.491Z,13.20
2019-02-05T21:33:37.063Z,13.10
2019-02-05T21:36:38.545Z,13.00
2019-02-05T21:39:40.710Z,13.00
2019-02-05T21:42:42.322Z,12.90
2019-02-05T21:45:43.887Z,12.90
2019-02-05T21:48:45.793Z,12.80
2019-02-05T21:51:47.333Z,12.80
2019-02-05T21:54:49.137Z,12.70
2019-02-05T21:57:51.237Z,12.60
2019-02-05T22:00:52.743Z,12.60
2019-02-05T22:03:54.948Z,12.50
2019-02-05T22:06:56.703Z,12.50
2019-02-05T22:09:58.459Z,12.40
2019-02-05T22:13:00.243Z,12.40
2019-02-05T22:16:02.496Z,12.30
2019-02-05T22:19:03.997Z,12.30
2019-02-05T22:22:06.275Z,12.30
2019-02-05T22:25:12.542Z,12.20
2019-02-05T22:28:14.146Z,12.20
2019-02-05T22:31:15.760Z,12.10
2019-02-05T22:34:17.227Z,12.10
2019-02-05T22:37:20.110Z,12.00
2019-02-05T22:40:24.637Z,12.00
2019-02-05T22:43:26.181Z,11.90
2019-02-05T22:46:27.615Z,11.90
2019-02-05T22:49:29.069Z,11.90
2019-02-05T22:52:30.731Z,11.80
2019-02-05T22:55:32.666Z,11.70
2019-02-05T22:58:34.208Z,11.70
2019-02-05T23:01:48.237Z,11.60
2019-02-05T23:05:32.373Z,11.60
2019-02-05T23:08:33.989Z,11.60
2019-02-05T23:12:35.006Z,11.50
2019-02-05T23:15:37.975Z,11.40
2019-02-05T23:18:39.397Z,11.30
2019-02-05T23:21:40.803Z,11.30
2019-02-05T23:24:42.402Z,11.20
2019-02-05T23:27:43.982Z,11.20
2019-02-05T23:30:45.713Z,11.20
2019-02-05T23:33:47.297Z,11.10
2019-02-05T23:36:49.358Z,11.10
2019-02-05T23:39:51.332Z,11.10
2019-02-05T23:42:53.495Z,11.00
2019-02-05T23:46:01.456Z,11.00
2019-02-05T23:48:58.156Z,10.90
2019-02-05T23:51:59.643Z,10.90
2019-02-05T23:55:01.135Z,10.80
2019-02-05T23:58:02.822Z,10.80
